Time;durP1;ratioP1;P1;durP2;ratioP2;P2;SDS_P1;SDS_P2;PMS_P1;PMS_P2;Temp;Humidity;BMP_temperature;BMP_pressure;BME280_temperature;BME280_humidity;BME280_pressure;Samples;Min_cycle;Max_cycle;Signal;HPM_P1;HPM_P2
2022/12/08 00:01:06;;;;;;;5.30;1.05;;;1.70;99.90;;;;;;5101451;28;20137;-64
2022/12/08 00:03:33;;;;;;;1.58;0.85;;;1.70;99.90;;;;;;5106649;27;20138;-63
2022/12/08 00:11:33;;;;;;;0.95;0.63;;;1.60;99.90;;;;;;5098484;28;20050;-62
2022/12/08 00:14:00;;;;;;;0.60;0.50;;;1.50;99.90;;;;;;5102323;28;20052;-62
2022/12/08 00:16:27;;;;;;;2.00;0.70;;;1.60;99.90;;;;;;5102113;28;20051;-63
2022/12/08 00:18:54;;;;;;;1.33;0.70;;;1.60;99.90;;;;;;5096473;28;20043;-64
2022/12/08 00:21:21;;;;;;;1.60;0.80;;;1.50;99.90;;;;;;5100622;28;20052;-62
2022/12/08 00:23:48;;;;;;;3.58;0.65;;;1.50;99.90;;;;;;5101555;28;20062;-62
2022/12/08 00:26:15;;;;;;;3.50;0.73;;;1.50;99.90;;;;;;5102281;28;20043;-63
2022/12/08 00:28:42;;;;;;;1.48;0.60;;;1.50;99.90;;;;;;5098160;28;20039;-62
2022/12/08 00:31:10;;;;;;;1.60;0.75;;;1.50;99.90;;;;;;5101548;28;20417;-66
2022/12/08 00:33:37;;;;;;;1.50;0.38;;;1.50;99.90;;;;;;5098941;27;20135;-66
2022/12/08 00:36:10;;;;;;;3.10;1.35;;;1.40;99.90;;;;;;5084163;28;20131;-68
2022/12/08 00:38:37;;;;;;;1.42;0.55;;;1.40;99.90;;;;;;5099916;28;20051;-62
2022/12/08 00:44:12;;;;;;;2.92;0.40;;;1.40;99.90;;;;;;5099095;28;20048;-65
2022/12/08 00:46:40;;;;;;;1.15;0.50;;;1.40;99.90;;;;;;5096997;27;20046;-65
2022/12/08 00:49:08;;;;;;;0.63;0.50;;;1.40;99.90;;;;;;5094807;28;20052;-63
2022/12/08 00:51:35;;;;;;;3.13;0.40;;;1.40;99.90;;;;;;5100843;28;20044;-63
2022/12/08 00:54:03;;;;;;;1.65;0.88;;;1.40;99.90;;;;;;5100121;28;20078;-65
2022/12/08 00:56:30;;;;;;;3.60;0.60;;;1.40;99.90;;;;;;5096731;28;20051;-63
2022/12/08 00:58:57;;;;;;;2.05;0.60;;;1.40;99.90;;;;;;5098759;28;20071;-62
2022/12/08 01:01:24;;;;;;;3.25;1.00;;;1.40;99.90;;;;;;5101214;28;20050;-63
2022/12/08 01:03:51;;;;;;;0.73;0.40;;;1.40;99.90;;;;;;5102494;28;20173;-65
2022/12/08 01:06:18;;;;;;;3.03;0.75;;;1.40;99.90;;;;;;5098285;28;20122;-64
2022/12/08 01:08:45;;;;;;;1.05;0.57;;;1.40;99.90;;;;;;5099730;28;20047;-68
2022/12/08 01:11:15;;;;;;;1.42;0.38;;;1.40;99.90;;;;;;5101942;28;20062;-63
2022/12/08 01:13:43;;;;;;;4.60;0.40;;;1.40;99.90;;;;;;5104797;27;20496;-62
2022/12/08 01:16:18;;;;;;;4.05;0.63;;;1.40;99.90;;;;;;5100137;28;20055;-68
2022/12/08 01:18:45;;;;;;;4.03;0.75;;;1.40;99.90;;;;;;5095692;28;20138;-63
2022/12/08 01:21:12;;;;;;;0.45;0.20;;;1.30;99.90;;;;;;5098469;28;20190;-63
2022/12/08 01:23:39;;;;;;;3.30;0.60;;;1.30;99.90;;;;;;5098027;28;20035;-63
2022/12/08 01:26:09;;;;;;;2.35;0.40;;;1.30;99.90;;;;;;5101777;28;20218;-63
2022/12/08 01:28:36;;;;;;;1.38;0.40;;;1.30;99.90;;;;;;5098359;27;20039;-65
2022/12/08 01:31:03;;;;;;;2.05;0.75;;;1.30;99.90;;;;;;5095887;27;20055;-68
2022/12/08 01:33:31;;;;;;;5.43;1.70;;;1.30;99.90;;;;;;5098028;28;20145;-63
2022/12/08 01:36:03;;;;;;;2.30;0.40;;;1.20;99.90;;;;;;5102549;28;20043;-65
2022/12/08 01:38:30;;;;;;;2.53;1.58;;;1.20;99.90;;;;;;5098722;28;20042;-63
2022/12/08 01:40:58;;;;;;;4.20;0.60;;;1.20;99.90;;;;;;5101683;28;20074;-62
2022/12/08 01:43:42;;;;;;;1.23;0.30;;;1.20;99.90;;;;;;5101284;28;20109;-65
2022/12/08 01:46:09;;;;;;;3.03;0.47;;;1.20;99.90;;;;;;5100777;28;20157;-64
2022/12/08 01:48:36;;;;;;;0.43;0.20;;;1.20;99.90;;;;;;5101390;28;20085;-65
2022/12/08 01:51:04;;;;;;;1.98;0.65;;;1.20;99.90;;;;;;5100789;28;20048;-65
2022/12/08 01:53:31;;;;;;;0.75;0.25;;;1.20;99.90;;;;;;5098605;28;20044;-64
2022/12/08 01:56:04;;;;;;;2.42;0.38;;;1.20;99.90;;;;;;5101680;28;20142;-68
2022/12/08 01:58:36;;;;;;;3.40;0.52;;;1.20;99.90;;;;;;5097564;28;20070;-63
2022/12/08 02:01:03;;;;;;;1.70;1.60;;;1.20;99.90;;;;;;5094962;28;20043;-62
2022/12/08 02:03:41;;;;;;;1.00;0.30;;;1.10;99.90;;;;;;5096564;28;20154;-66
2022/12/08 02:06:08;;;;;;;3.80;0.95;;;1.10;99.90;;;;;;5098382;28;20079;-67
2022/12/08 02:08:39;;;;;;;6.05;0.85;;;1.10;99.90;;;;;;5099822;28;20217;-62
2022/12/08 02:11:10;;;;;;;;;;;1.20;99.90;;;;;;5094699;28;20142;-66
2022/12/08 02:13:37;;;;;;;2.30;1.17;;;1.10;99.90;;;;;;5098139;28;19926;-64
2022/12/08 02:16:38;;;;;;;0.88;0.22;;;1.10;99.90;;;;;;5099116;28;20514;-67
2022/12/08 02:19:13;;;;;;;4.80;0.52;;;1.10;99.90;;;;;;5095194;28;20071;-65
2022/12/08 02:22:10;;;;;;;1.88;1.10;;;1.00;99.90;;;;;;5099094;28;20040;-63
2022/12/08 02:24:52;;;;;;;1.77;0.30;;;1.00;99.90;;;;;;5098705;28;20461;-66
2022/12/08 02:27:43;;;;;;;2.08;0.30;;;1.00;99.90;;;;;;5096180;28;20059;-62
2022/12/08 02:30:42;;;;;;;2.95;0.65;;;1.00;99.90;;;;;;5096127;28;20143;-66
2022/12/08 02:33:35;;;;;;;0.60;0.32;;;1.00;99.90;;;;;;5100980;28;20044;-63
2022/12/08 02:36:21;;;;;;;1.10;0.50;;;0.90;99.90;;;;;;5076003;28;20500;-67
2022/12/08 02:39:07;;;;;;;1.55;0.28;;;0.90;99.90;;;;;;5099196;28;20047;-63
2022/12/08 02:41:55;;;;;;;1.40;0.50;;;0.90;99.90;;;;;;5102672;28;20043;-62
2022/12/08 02:44:47;;;;;;;0.85;0.30;;;0.90;99.90;;;;;;5101740;28;20071;-62
2022/12/08 02:47:17;;;;;;;0.95;0.45;;;0.80;99.90;;;;;;5100277;28;20191;-61
2022/12/08 02:49:45;;;;;;;2.33;0.13;;;0.80;99.90;;;;;;5103667;28;20071;-67
2022/12/08 02:52:11;;;;;;;1.27;0.17;;;0.80;99.90;;;;;;5104345;28;20050;-62
2022/12/08 02:55:04;;;;;;;1.42;0.13;;;0.90;99.90;;;;;;5099409;28;20071;-66
2022/12/08 02:57:44;;;;;;;1.30;0.32;;;0.90;99.90;;;;;;5089671;28;20051;-63
2022/12/08 03:00:15;;;;;;;1.35;0.40;;;0.80;99.90;;;;;;5098012;28;20414;-65
2022/12/08 03:03:00;;;;;;;1.88;0.68;;;0.80;99.90;;;;;;5096761;28;20636;-62
2022/12/08 03:05:49;;;;;;;2.30;0.30;;;0.80;99.90;;;;;;5105056;27;20046;-62
2022/12/08 03:08:19;;;;;;;2.72;0.10;;;0.80;99.90;;;;;;5100478;28;20829;-62
2022/12/08 03:10:54;;;;;;;1.65;0.20;;;0.80;99.90;;;;;;5102542;28;20123;-66
2022/12/08 03:13:40;;;;;;;1.00;0.30;;;0.80;99.90;;;;;;5100171;27;20055;-62
2022/12/08 03:16:10;;;;;;;1.15;0.30;;;0.80;99.90;;;;;;5098673;28;20105;-66
2022/12/08 03:18:42;;;;;;;2.72;0.50;;;0.80;99.90;;;;;;5096522;28;20091;-63
2022/12/08 03:21:11;;;;;;;1.95;0.35;;;0.70;99.90;;;;;;5103597;28;20047;-64
2022/12/08 03:23:39;;;;;;;2.20;0.20;;;0.70;99.90;;;;;;5100519;28;20048;-61
2022/12/08 03:26:29;;;;;;;5.18;0.40;;;0.70;99.90;;;;;;5095782;28;20056;-65
2022/12/08 03:28:56;;;;;;;1.57;0.30;;;0.70;99.90;;;;;;5100791;27;23030;-65
2022/12/08 03:31:27;;;;;;;1.38;0.30;;;0.70;99.90;;;;;;5102204;28;20044;-61
2022/12/08 03:33:57;;;;;;;1.83;0.20;;;0.60;99.90;;;;;;5100165;28;20046;-64
2022/12/08 03:36:24;;;;;;;2.60;0.43;;;0.60;99.90;;;;;;5103392;28;20040;-63
2022/12/08 03:38:52;;;;;;;2.05;0.73;;;0.50;99.90;;;;;;5099588;28;20501;-63
2022/12/08 03:41:21;;;;;;;1.23;0.28;;;0.50;99.90;;;;;;5101068;28;21145;-64
2022/12/08 03:43:54;;;;;;;3.85;0.60;;;0.50;99.90;;;;;;5103265;28;20044;-68
2022/12/08 03:46:23;;;;;;;1.60;0.35;;;0.50;99.90;;;;;;5096305;28;20070;-63
2022/12/08 03:48:49;;;;;;;3.53;0.50;;;0.50;99.90;;;;;;5096364;28;20109;-65
2022/12/08 03:51:16;;;;;;;2.45;0.20;;;0.50;99.90;;;;;;5104064;28;20058;-62
2022/12/08 03:53:44;;;;;;;2.10;0.30;;;0.50;99.90;;;;;;5104947;28;20044;-66
2022/12/08 03:56:18;;;;;;;0.38;0.20;;;0.50;99.90;;;;;;5098246;28;20495;-63
2022/12/08 03:58:45;;;;;;;1.35;0.20;;;0.50;99.90;;;;;;5100278;28;20038;-62
2022/12/08 04:01:12;;;;;;;0.45;0.15;;;0.50;99.90;;;;;;5099261;28;20038;-64
2022/12/08 04:03:39;;;;;;;0.82;0.22;;;0.50;99.90;;;;;;5098849;28;20040;-66
2022/12/08 04:06:06;;;;;;;3.45;0.30;;;0.50;99.90;;;;;;5096635;28;20572;-62
2022/12/08 04:08:33;;;;;;;1.70;0.52;;;0.40;99.90;;;;;;5098253;27;20142;-63
2022/12/08 04:11:00;;;;;;;0.35;0.13;;;0.40;99.90;;;;;;5097928;28;20044;-61
2022/12/08 04:13:27;;;;;;;0.98;0.15;;;0.40;99.90;;;;;;5099339;28;20040;-61
2022/12/08 04:15:54;;;;;;;5.80;0.60;;;0.40;99.90;;;;;;5100559;28;20042;-68
2022/12/08 04:18:21;;;;;;;2.58;0.30;;;0.40;99.90;;;;;;5098421;28;20090;-61
2022/12/08 04:20:48;;;;;;;1.02;0.40;;;0.40;99.90;;;;;;5091762;28;20162;-61
2022/12/08 04:23:15;;;;;;;0.43;0.10;;;0.40;99.90;;;;;;5095290;28;20054;-62
2022/12/08 04:25:42;;;;;;;0.45;0.45;;;0.30;99.90;;;;;;5097538;28;20080;-65
2022/12/08 04:28:10;;;;;;;1.80;0.38;;;0.30;99.90;;;;;;5097782;28;20043;-62
2022/12/08 04:30:36;;;;;;;0.35;0.28;;;0.30;99.90;;;;;;5098522;28;20039;-63
2022/12/08 04:33:04;;;;;;;3.13;0.10;;;0.30;99.90;;;;;;5107698;27;20081;-63
2022/12/08 04:35:31;;;;;;;0.95;0.63;;;0.30;99.90;;;;;;5102268;28;20047;-61
2022/12/08 04:37:58;;;;;;;0.63;0.25;;;0.30;99.90;;;;;;5102756;28;20046;-68
2022/12/08 04:40:25;;;;;;;0.85;0.40;;;0.30;99.90;;;;;;5098283;28;20063;-63
2022/12/08 04:42:51;;;;;;;2.00;0.45;;;0.20;99.90;;;;;;5098011;28;20496;-63
2022/12/08 04:45:18;;;;;;;2.72;0.30;;;0.20;99.90;;;;;;5101261;28;20047;-62
2022/12/08 04:47:45;;;;;;;2.92;0.20;;;0.20;99.90;;;;;;5099527;28;20047;-68
2022/12/08 04:50:12;;;;;;;1.38;0.60;;;0.30;99.90;;;;;;5097619;28;20181;-63
2022/12/08 04:52:39;;;;;;;0.63;0.20;;;0.30;99.90;;;;;;5097662;28;20147;-62
2022/12/08 04:55:06;;;;;;;1.23;0.22;;;0.30;99.90;;;;;;5100981;28;20048;-67
2022/12/08 04:57:33;;;;;;;1.45;0.82;;;0.30;99.90;;;;;;5102937;28;20048;-65
2022/12/08 05:00:00;;;;;;;1.55;0.50;;;0.30;99.90;;;;;;5097932;28;20043;-61
2022/12/08 05:02:28;;;;;;;3.35;0.82;;;0.30;99.90;;;;;;5098267;28;20051;-63
2022/12/08 05:04:56;;;;;;;1.23;0.40;;;0.20;99.90;;;;;;5095439;28;20689;-69
2022/12/08 05:07:23;;;;;;;3.08;0.47;;;0.20;99.90;;;;;;5095603;28;20135;-66
2022/12/08 05:09:50;;;;;;;2.28;1.58;;;0.20;99.90;;;;;;5097537;28;20147;-67
2022/12/08 05:12:17;;;;;;;0.35;0.20;;;0.20;99.90;;;;;;5102516;27;20469;-65
2022/12/08 05:14:45;;;;;;;1.73;0.52;;;0.20;99.90;;;;;;5099768;28;20051;-67
2022/12/08 05:17:12;;;;;;;2.42;0.82;;;0.10;99.90;;;;;;5096262;28;20067;-63
2022/12/08 05:19:39;;;;;;;0.30;0.30;;;0.10;99.90;;;;;;5099365;28;20046;-63
2022/12/08 05:22:06;;;;;;;1.00;0.30;;;0.10;99.90;;;;;;5100085;28;20052;-64
2022/12/08 05:24:33;;;;;;;1.27;0.45;;;0.00;99.90;;;;;;5100646;28;20461;-62
2022/12/08 05:27:00;;;;;;;0.50;0.35;;;0.10;99.90;;;;;;5097014;28;20054;-69
2022/12/08 05:29:27;;;;;;;1.55;0.57;;;0.10;99.90;;;;;;5102977;28;20071;-67
2022/12/08 05:31:54;;;;;;;0.30;0.10;;;0.00;99.90;;;;;;5097632;28;20074;-61
2022/12/08 05:34:20;;;;;;;3.30;1.10;;;0.00;99.90;;;;;;5100132;28;20069;-62
2022/12/08 05:36:47;;;;;;;3.38;0.45;;;0.00;99.90;;;;;;5098530;28;20158;-62
2022/12/08 05:39:15;;;;;;;1.02;0.40;;;0.00;99.90;;;;;;5103101;28;20050;-62
2022/12/08 05:41:42;;;;;;;3.17;0.47;;;0.00;99.90;;;;;;5098916;28;20059;-61
2022/12/08 05:44:08;;;;;;;2.92;0.95;;;0.00;99.90;;;;;;5099232;28;20051;-63
2022/12/08 05:46:36;;;;;;;2.70;0.40;;;0.00;99.90;;;;;;5100776;28;20134;-64
2022/12/08 05:49:03;;;;;;;2.55;0.45;;;-0.10;99.90;;;;;;5093857;28;20130;-68
2022/12/08 05:51:30;;;;;;;2.33;0.40;;;-0.10;99.90;;;;;;5100521;28;20044;-61
2022/12/08 05:53:57;;;;;;;2.33;0.40;;;-0.10;99.90;;;;;;5099750;28;20031;-65
2022/12/08 05:56:24;;;;;;;1.02;0.40;;;-0.20;99.90;;;;;;5096941;28;20044;-63
2022/12/08 05:58:51;;;;;;;2.80;1.10;;;-0.10;99.90;;;;;;5098528;28;20052;-62
2022/12/08 06:01:24;;;;;;;4.75;0.73;;;-0.10;99.90;;;;;;5104644;28;20119;-63
2022/12/08 06:03:52;;;;;;;2.50;0.65;;;-0.20;99.90;;;;;;5106111;27;20047;-63
2022/12/08 06:06:19;;;;;;;3.90;0.82;;;-0.20;99.90;;;;;;5103791;28;20134;-63
2022/12/08 06:08:46;;;;;;;1.15;0.40;;;-0.20;99.90;;;;;;5099301;28;20071;-63
2022/12/08 06:11:22;;;;;;;2.42;0.45;;;-0.10;99.90;;;;;;5102016;28;20055;-61
2022/12/08 06:13:49;;;;;;;3.28;0.60;;;-0.20;99.90;;;;;;5101835;28;20040;-65
2022/12/08 06:16:17;;;;;;;1.20;0.45;;;-0.20;99.90;;;;;;5096213;28;20072;-68
2022/12/08 06:18:44;;;;;;;2.05;0.63;;;-0.20;99.90;;;;;;5096999;28;20517;-63
2022/12/08 06:21:12;;;;;;;3.65;0.40;;;-0.30;99.90;;;;;;5099279;28;20055;-67
2022/12/08 06:23:39;;;;;;;4.10;0.88;;;-0.30;99.90;;;;;;5103025;28;20142;-62
2022/12/08 06:26:12;;;;;;;6.75;1.35;;;-0.30;99.90;;;;;;5095297;28;20613;-64
2022/12/08 06:28:40;;;;;;;3.30;0.73;;;-0.30;99.90;;;;;;5097868;28;20497;-62
2022/12/08 06:31:09;;;;;;;5.88;0.68;;;-0.30;99.90;;;;;;5099561;28;20055;-68
2022/12/08 06:33:37;;;;;;;5.88;0.47;;;-0.30;99.90;;;;;;5098898;28;20402;-62
2022/12/08 06:36:05;;;;;;;0.50;0.43;;;-0.30;99.90;;;;;;5101612;27;20048;-63
2022/12/08 06:38:32;;;;;;;6.03;1.30;;;-0.30;99.90;;;;;;5102232;27;20067;-63
2022/12/08 06:41:00;;;;;;;2.47;0.57;;;-0.30;99.90;;;;;;5098084;28;20039;-68
2022/12/08 06:43:27;;;;;;;2.15;0.60;;;-0.30;99.90;;;;;;5098566;28;20088;-64
2022/12/08 06:45:54;;;;;;;1.63;0.80;;;-0.30;99.90;;;;;;5100842;28;20054;-62
2022/12/08 06:48:21;;;;;;;6.28;1.15;;;-0.30;99.90;;;;;;5100897;28;20043;-67
2022/12/08 06:50:48;;;;;;;6.43;0.70;;;-0.30;99.90;;;;;;5099282;28;20046;-63
2022/12/08 06:53:15;;;;;;;6.32;0.57;;;-0.30;99.90;;;;;;5095009;27;20076;-65
2022/12/08 06:55:50;;;;;;;11.35;1.17;;;-0.30;99.90;;;;;;5104480;28;20039;-63
2022/12/08 06:58:25;;;;;;;1.98;1.05;;;-0.30;99.90;;;;;;5101679;28;20044;-63
2022/12/08 07:00:52;;;;;;;0.60;0.52;;;-0.40;99.90;;;;;;5099517;28;21654;-62
2022/12/08 07:03:19;;;;;;;6.63;0.90;;;-0.30;99.90;;;;;;5084348;28;20400;-62
2022/12/08 07:05:46;;;;;;;2.05;0.50;;;-0.40;99.90;;;;;;5100614;27;20154;-62
2022/12/08 07:08:13;;;;;;;1.80;0.40;;;-0.40;99.90;;;;;;5100708;28;20078;-64
2022/12/08 07:10:40;;;;;;;4.78;0.55;;;-0.40;99.90;;;;;;5100275;28;20064;-62
2022/12/08 07:13:07;;;;;;;3.53;0.63;;;-0.50;99.90;;;;;;5097837;28;20039;-65
2022/12/08 07:15:34;;;;;;;2.42;1.60;;;-0.40;99.90;;;;;;5099378;28;20405;-61
2022/12/08 07:18:01;;;;;;;0.88;0.30;;;-0.40;99.90;;;;;;5099157;28;20087;-63
2022/12/08 07:20:27;;;;;;;2.65;0.65;;;-0.40;99.90;;;;;;5105727;28;20054;-65
2022/12/08 07:22:54;;;;;;;2.33;0.30;;;-0.50;99.90;;;;;;5103611;28;20794;-63
2022/12/08 07:25:22;;;;;;;2.80;0.75;;;-0.50;99.90;;;;;;5105540;28;20039;-62
2022/12/08 07:27:50;;;;;;;2.10;0.70;;;-0.50;99.90;;;;;;5110108;27;20056;-63
2022/12/08 07:30:17;;;;;;;11.13;1.30;;;-0.50;99.90;;;;;;5099936;28;20044;-63
2022/12/08 07:32:45;;;;;;;6.03;1.75;;;-0.40;99.90;;;;;;5100061;27;20526;-64
2022/12/08 07:35:11;;;;;;;2.47;0.55;;;-0.50;99.90;;;;;;5099815;28;20409;-61
2022/12/08 07:37:39;;;;;;;11.15;1.38;;;-0.40;99.90;;;;;;5097962;28;20048;-62
2022/12/08 07:40:07;;;;;;;0.43;0.43;;;-0.50;99.90;;;;;;5102460;28;20593;-63
2022/12/08 07:42:34;;;;;;;3.90;0.70;;;-0.40;99.90;;;;;;5085342;28;20134;-61
2022/12/08 07:45:01;;;;;;;8.27;0.90;;;-0.50;99.90;;;;;;5098242;28;20052;-62
2022/12/08 07:47:28;;;;;;;6.13;1.15;;;-0.50;99.90;;;;;;5095537;28;20040;-65
2022/12/08 07:49:55;;;;;;;6.18;0.80;;;-0.50;99.90;;;;;;5102711;28;20066;-61
2022/12/08 07:52:22;;;;;;;1.27;0.55;;;-0.40;99.90;;;;;;5097753;28;20077;-62
2022/12/08 07:54:49;;;;;;;1.45;0.35;;;-0.40;99.90;;;;;;5101384;28;20066;-66
2022/12/08 07:57:16;;;;;;;1.83;0.25;;;-0.50;99.90;;;;;;5103490;28;20056;-62
2022/12/08 07:59:42;;;;;;;4.78;0.93;;;-0.50;99.90;;;;;;5098955;27;20048;-62
2022/12/08 08:02:18;;;;;;;6.00;0.77;;;-0.40;99.90;;;;;;5100637;27;20071;-63
2022/12/08 08:04:52;;;;;;;4.68;0.52;;;-0.40;99.90;;;;;;5097712;28;20047;-62
2022/12/08 08:07:19;;;;;;;4.68;0.63;;;-0.40;99.90;;;;;;5101420;28;20060;-68
2022/12/08 08:09:46;;;;;;;0.60;0.40;;;-0.40;99.90;;;;;;5096530;28;20101;-66
2022/12/08 08:12:12;;;;;;;1.83;0.77;;;-0.40;99.90;;;;;;5096844;28;20047;-62
2022/12/08 08:14:59;;;;;;;2.97;0.80;;;-0.40;99.90;;;;;;5100670;28;20130;-63
2022/12/08 08:17:26;;;;;;;5.63;0.77;;;-0.40;99.90;;;;;;5099639;27;20048;-62
2022/12/08 08:19:53;;;;;;;7.57;0.75;;;-0.40;99.90;;;;;;5101254;28;20058;-65
2022/12/08 08:22:20;;;;;;;5.45;0.60;;;-0.40;99.90;;;;;;5101871;28;20047;-65
2022/12/08 08:24:46;;;;;;;3.00;0.57;;;-0.40;99.90;;;;;;5099595;28;20051;-67
2022/12/08 08:27:13;;;;;;;5.45;0.80;;;-0.40;99.90;;;;;;5100338;28;20058;-66
2022/12/08 08:29:40;;;;;;;0.98;0.43;;;-0.40;99.90;;;;;;5100731;28;20043;-62
2022/12/08 08:32:07;;;;;;;0.38;0.28;;;-0.40;99.90;;;;;;5100784;27;20046;-63
2022/12/08 08:34:34;;;;;;;3.28;1.45;;;-0.40;99.90;;;;;;5102077;27;20050;-64
2022/12/08 08:37:01;;;;;;;1.38;0.70;;;-0.30;99.90;;;;;;5100617;28;20066;-63
2022/12/08 08:39:29;;;;;;;3.03;0.63;;;-0.40;99.90;;;;;;5105971;28;20062;-62
2022/12/08 08:41:56;;;;;;;0.90;0.40;;;-0.30;99.90;;;;;;5101389;28;20046;-64
2022/12/08 08:44:22;;;;;;;2.00;0.55;;;-0.30;99.90;;;;;;5101865;28;20146;-63
2022/12/08 08:46:49;;;;;;;6.22;0.50;;;-0.30;99.90;;;;;;5098435;28;20135;-65
2022/12/08 08:49:17;;;;;;;2.78;0.55;;;-0.30;99.90;;;;;;5100681;28;20044;-63
2022/12/08 08:51:44;;;;;;;4.50;1.40;;;-0.30;99.90;;;;;;5097565;28;20051;-61
2022/12/08 08:54:11;;;;;;;3.38;0.40;;;-0.30;99.90;;;;;;5101084;28;20047;-62
2022/12/08 08:56:38;;;;;;;3.85;0.88;;;-0.30;99.90;;;;;;5095380;28;20138;-64
2022/12/08 08:59:05;;;;;;;3.70;0.60;;;-0.30;99.90;;;;;;5099777;28;20059;-62
2022/12/08 09:01:32;;;;;;;4.57;0.60;;;-0.30;99.90;;;;;;5086787;28;20070;-62
2022/12/08 09:04:00;;;;;;;1.75;0.68;;;-0.30;99.90;;;;;;5103939;28;20116;-63
2022/12/08 09:06:27;;;;;;;1.45;0.60;;;-0.30;99.90;;;;;;5099094;28;20046;-67
2022/12/08 09:08:54;;;;;;;1.42;0.60;;;-0.30;99.90;;;;;;5101842;27;20100;-62
2022/12/08 09:11:24;;;;;;;8.98;2.40;;;-0.40;99.90;;;;;;5101570;28;20050;-68
2022/12/08 09:13:53;;;;;;;2.72;1.33;;;-0.40;99.90;;;;;;5093078;28;20047;-60
2022/12/08 09:16:21;;;;;;;3.13;0.57;;;-0.50;99.90;;;;;;5098057;28;20047;-62
2022/12/08 09:18:48;;;;;;;2.70;0.45;;;-0.50;99.90;;;;;;5096013;28;20036;-67
2022/12/08 09:21:21;;;;;;;4.93;0.70;;;-0.50;99.90;;;;;;5100602;28;20075;-62
2022/12/08 09:23:50;;;;;;;5.38;0.38;;;-0.50;99.90;;;;;;5100824;28;20043;-63
2022/12/08 09:26:21;;;;;;;1.55;0.52;;;-0.60;99.90;;;;;;5099394;28;20055;-62
2022/12/08 09:28:49;;;;;;;3.97;1.05;;;-0.50;99.90;;;;;;5096314;28;20048;-62
2022/12/08 09:31:19;;;;;;;3.03;0.50;;;-0.50;99.90;;;;;;5096890;28;20689;-64
2022/12/08 09:33:47;;;;;;;2.97;0.35;;;-0.50;99.90;;;;;;5097975;28;20138;-62
2022/12/08 09:36:14;;;;;;;4.70;0.63;;;-0.50;99.90;;;;;;5102365;28;20051;-66
2022/12/08 09:38:41;;;;;;;4.80;0.55;;;-0.50;99.90;;;;;;5100931;28;20050;-62
2022/12/08 09:41:40;;;;;;;5.50;0.47;;;-0.50;99.90;;;;;;5104277;28;20043;-64
2022/12/08 09:44:38;;;;;;;2.47;0.50;;;-0.40;99.90;;;;;;5097483;27;20066;-64
2022/12/08 09:47:22;;;;;;;1.70;0.80;;;-0.40;99.90;;;;;;5101357;28;20143;-67
2022/12/08 09:50:06;;;;;;;6.35;0.90;;;-0.40;99.90;;;;;;5104986;27;20043;-65
2022/12/08 09:52:43;;;;;;;9.90;0.80;;;-0.30;99.90;;;;;;5104997;27;20044;-62
2022/12/08 09:55:33;;;;;;;8.82;0.60;;;-0.40;99.90;;;;;;5098771;27;20596;-65
2022/12/08 09:58:02;;;;;;;13.52;1.42;;;-0.30;99.90;;;;;;5103568;27;20050;-65
2022/12/08 10:00:29;;;;;;;16.08;1.75;;;-0.30;99.90;;;;;;5103275;27;20043;-67
2022/12/08 10:02:56;;;;;;;3.42;0.40;;;-0.30;99.90;;;;;;5100637;28;20047;-65
2022/12/08 10:05:25;;;;;;;6.82;0.85;;;-0.30;99.90;;;;;;5105552;28;20058;-62
2022/12/08 10:08:05;;;;;;;8.82;0.77;;;-0.30;99.90;;;;;;5100670;28;20052;-61
2022/12/08 10:10:45;;;;;;;13.63;1.55;;;-0.30;99.90;;;;;;5104248;28;20043;-62
2022/12/08 10:13:36;;;;;;;9.63;1.98;;;-0.30;99.90;;;;;;5100231;28;20126;-62
2022/12/08 10:16:17;;;;;;;7.10;0.50;;;-0.20;99.90;;;;;;5099560;28;20096;-64
2022/12/08 10:19:13;;;;;;;10.35;1.55;;;-0.30;99.90;;;;;;5105476;28;20058;-62
2022/12/08 10:21:40;;;;;;;4.50;1.10;;;-0.20;99.90;;;;;;5101748;28;20372;-62
2022/12/08 10:24:24;;;;;;;2.55;0.70;;;-0.20;99.90;;;;;;5097056;28;20094;-63
2022/12/08 10:26:50;;;;;;;5.00;0.95;;;-0.20;99.90;;;;;;5095488;28;20044;-63
2022/12/08 10:29:17;;;;;;;8.60;1.17;;;-0.20;99.90;;;;;;5105113;28;20047;-62
2022/12/08 10:31:44;;;;;;;11.05;2.50;;;-0.20;99.90;;;;;;5104361;28;20047;-62
2022/12/08 10:34:16;;;;;;;12.48;0.88;;;-0.20;99.90;;;;;;5103430;28;20048;-65
2022/12/08 10:36:49;;;;;;;8.20;0.88;;;-0.20;99.90;;;;;;5095549;28;20230;-61
2022/12/08 10:39:36;;;;;;;7.10;2.55;;;-0.20;99.90;;;;;;5099687;28;20480;-62
2022/12/08 10:42:20;;;;;;;10.18;1.60;;;-0.20;99.90;;;;;;5101334;28;20067;-62
2022/12/08 10:45:02;;;;;;;7.97;1.05;;;-0.10;99.90;;;;;;5098720;28;20113;-64
2022/12/08 10:47:34;;;;;;;7.85;1.70;;;-0.10;99.90;;;;;;5103094;28;20036;-62
2022/12/08 10:50:26;;;;;;;7.63;1.52;;;-0.10;99.90;;;;;;5101533;28;20048;-64
2022/12/08 10:53:09;;;;;;;9.85;1.05;;;-0.10;99.90;;;;;;5100985;28;20044;-62
2022/12/08 10:55:56;;;;;;;6.70;1.27;;;-0.10;99.90;;;;;;5096812;28;20127;-62
2022/12/08 10:58:36;;;;;;;10.60;0.70;;;0.00;99.90;;;;;;5098871;28;20055;-62
2022/12/08 11:01:13;;;;;;;4.22;0.80;;;0.00;99.90;;;;;;5096882;28;20043;-65
2022/12/08 11:03:53;;;;;;;3.58;0.80;;;0.00;99.90;;;;;;5100471;28;20115;-62
2022/12/08 11:06:37;;;;;;;8.43;1.40;;;0.00;99.90;;;;;;5093905;28;20606;-64
2022/12/08 11:09:36;;;;;;;3.80;0.70;;;0.00;99.90;;;;;;5097401;28;20048;-65
2022/12/08 11:12:17;;;;;;;3.40;0.82;;;-0.10;99.90;;;;;;5099362;28;20087;-63
2022/12/08 11:14:43;;;;;;;6.03;0.22;;;0.00;99.90;;;;;;5098564;28;20039;-64
2022/12/08 11:17:38;;;;;;;4.35;0.60;;;-0.10;99.90;;;;;;5101522;28;20129;-62
2022/12/08 11:20:08;;;;;;;5.10;1.27;;;-0.10;99.90;;;;;;5092518;28;20051;-63
2022/12/08 11:22:44;;;;;;;6.72;0.57;;;-0.10;99.90;;;;;;5102775;28;20055;-61
2022/12/08 11:25:26;;;;;;;2.80;0.77;;;-0.10;99.90;;;;;;5060199;28;20059;-62
2022/12/08 11:27:56;;;;;;;2.33;0.93;;;-0.10;99.90;;;;;;5101412;28;20051;-62
2022/12/08 11:30:40;;;;;;;2.42;0.60;;;-0.10;99.90;;;;;;5097806;28;20131;-62
2022/12/08 11:33:27;;;;;;;4.03;0.75;;;-0.10;99.90;;;;;;5100305;28;20159;-63
2022/12/08 11:36:08;;;;;;;4.15;0.60;;;-0.10;99.90;;;;;;5098574;28;20397;-63
2022/12/08 11:38:41;;;;;;;9.18;0.65;;;-0.10;99.90;;;;;;5094197;28;20187;-62
2022/12/08 11:41:19;;;;;;;4.43;0.82;;;-0.20;99.90;;;;;;5097354;28;20059;-62
2022/12/08 11:43:54;;;;;;;4.38;0.32;;;-0.10;99.90;;;;;;5063069;28;1098145;-63
2022/12/08 11:46:31;;;;;;;3.80;0.82;;;-0.20;99.90;;;;;;5102048;28;20057;-62
2022/12/08 11:49:17;;;;;;;4.22;0.40;;;-0.20;99.90;;;;;;5096299;28;20051;-62
2022/12/08 11:51:53;;;;;;;5.35;0.77;;;-0.20;99.90;;;;;;5097789;28;20126;-62
2022/12/08 11:54:35;;;;;;;3.65;1.58;;;-0.20;99.90;;;;;;5101511;28;20054;-67
2022/12/08 11:57:08;;;;;;;3.90;1.10;;;-0.10;99.90;;;;;;5098513;28;20150;-62
2022/12/08 11:59:44;;;;;;;2.10;0.45;;;-0.10;99.90;;;;;;5093777;28;20690;-65
2022/12/08 12:02:28;;;;;;;8.40;1.08;;;-0.20;99.90;;;;;;5102914;28;20432;-62
2022/12/08 12:05:03;;;;;;;1.45;1.33;;;-0.20;99.90;;;;;;5092379;28;20117;-66
2022/12/08 12:08:09;;;;;;;8.90;1.08;;;-0.20;99.90;;;;;;5100017;28;20123;-63
2022/12/08 12:10:58;;;;;;;2.35;1.23;;;-0.30;99.90;;;;;;5094145;28;20135;-64
2022/12/08 12:13:31;;;;;;;3.30;0.38;;;-0.30;99.90;;;;;;5095614;28;20075;-62
2022/12/08 12:16:49;;;;;;;4.97;0.45;;;-0.30;99.90;;;;;;5100945;28;20119;-62
2022/12/08 12:19:19;;;;;;;0.93;0.40;;;-0.30;99.90;;;;;;5054250;28;20055;-62
2022/12/08 12:22:07;;;;;;;8.70;0.40;;;-0.20;99.90;;;;;;5098286;28;20043;-66
2022/12/08 12:24:37;;;;;;;4.22;1.48;;;-0.20;99.90;;;;;;5100631;28;20044;-62
2022/12/08 12:27:13;;;;;;;0.93;0.73;;;-0.30;99.90;;;;;;5094581;28;20051;-69
2022/12/08 12:29:57;;;;;;;8.10;1.52;;;-0.20;99.90;;;;;;5098276;28;20048;-62
2022/12/08 12:32:38;;;;;;;1.42;0.57;;;-0.20;99.90;;;;;;5097843;28;20043;-62
2022/12/08 12:35:15;;;;;;;15.93;1.05;;;-0.20;99.90;;;;;;5098517;28;20553;-62
2022/12/08 12:37:42;;;;;;;2.92;0.57;;;-0.20;99.90;;;;;;5097926;28;20071;-63
2022/12/08 12:40:20;;;;;;;7.38;0.98;;;-0.20;99.90;;;;;;5096213;28;20139;-63
2022/12/08 12:43:10;;;;;;;6.45;0.98;;;-0.20;99.90;;;;;;5098469;28;20127;-62
2022/12/08 12:45:42;;;;;;;3.03;0.80;;;-0.20;99.90;;;;;;5102406;28;20122;-62
2022/12/08 12:48:22;;;;;;;6.57;1.50;;;-0.20;99.90;;;;;;5098090;28;20519;-64
2022/12/08 12:50:49;;;;;;;7.07;2.28;;;-0.20;99.90;;;;;;5095772;28;20488;-70
2022/12/08 12:53:16;;;;;;;7.68;1.70;;;-0.20;99.90;;;;;;5096550;28;20052;-66
2022/12/08 12:55:56;;;;;;;2.45;0.50;;;-0.20;99.90;;;;;;5097949;28;20075;-65
2022/12/08 12:58:28;;;;;;;1.70;0.52;;;-0.20;99.90;;;;;;5099357;28;20047;-63
2022/12/08 13:01:21;;;;;;;5.10;1.23;;;-0.20;99.90;;;;;;5097094;28;20101;-62
2022/12/08 13:04:04;;;;;;;2.80;0.80;;;-0.10;99.90;;;;;;5072487;28;20498;-66
2022/12/08 13:06:38;;;;;;;1.70;0.90;;;0.00;99.90;;;;;;5099679;28;20491;-64
2022/12/08 13:09:06;;;;;;;1.45;0.75;;;0.00;99.90;;;;;;5097386;27;20052;-65
2022/12/08 13:11:48;;;;;;;3.83;1.67;;;0.00;99.90;;;;;;5097399;28;20158;-66
2022/12/08 13:14:29;;;;;;;5.25;1.48;;;0.00;99.90;;;;;;5099994;28;20134;-68
2022/12/08 13:16:59;;;;;;;3.33;1.83;;;0.00;99.90;;;;;;5096355;28;20044;-66
2022/12/08 13:19:30;;;;;;;6.60;2.25;;;0.00;99.90;;;;;;5072802;28;20131;-65
2022/12/08 13:21:57;;;;;;;3.95;1.75;;;-0.10;99.90;;;;;;5101404;28;20051;-67
2022/12/08 13:24:27;;;;;;;3.33;1.73;;;-0.10;99.90;;;;;;5104865;28;20088;-63